Time;durP1;ratioP1;P1;durP2;ratioP2;P2;SDS_P1;SDS_P2;PMS_P1;PMS_P2;Temp;Humidity;BMP_temperature;BMP_pressure;BME280_temperature;BME280_humidity;BME280_pressure;Samples;Min_cycle;Max_cycle;Signal;HPM_P1;HPM_P2
2023/10/17 00:01:44;;;;;;;4.68;1.75;;;8.40;99.90;;;;;;5015663;28;20084;-88
2023/10/17 00:04:32;;;;;;;4.90;2.50;;;8.40;99.90;;;;;;5015960;28;20052;-88
2023/10/17 00:07:04;;;;;;;6.60;2.03;;;8.40;99.90;;;;;;5016136;28;20045;-88
2023/10/17 00:09:36;;;;;;;8.10;2.20;;;8.40;99.90;;;;;;5015770;28;20401;-88
2023/10/17 00:12:14;;;;;;;7.23;2.17;;;8.40;99.90;;;;;;5015836;28;20394;-88
2023/10/17 00:17:19;;;;;;;5.28;1.80;;;8.40;99.90;;;;;;5015165;28;20092;-88
2023/10/17 00:19:50;;;;;;;7.75;2.28;;;8.40;99.90;;;;;;5016253;28;20045;-88
2023/10/17 00:22:18;;;;;;;8.57;2.85;;;8.50;99.90;;;;;;5015864;28;20154;-87
2023/10/17 00:24:46;;;;;;;5.63;2.20;;;8.50;99.90;;;;;;5015923;28;20041;-88
2023/10/17 00:27:12;;;;;;;7.60;2.40;;;8.50;99.90;;;;;;5015580;28;20042;-88
2023/10/17 00:29:38;;;;;;;5.95;1.70;;;8.50;99.90;;;;;;5033293;28;20046;-88
2023/10/17 00:32:04;;;;;;;8.90;2.10;;;8.50;99.90;;;;;;5033441;28;20053;-88
2023/10/17 00:34:34;;;;;;;7.30;1.95;;;8.50;99.90;;;;;;5015504;28;20058;-88
2023/10/17 00:37:06;;;;;;;5.30;1.85;;;8.50;99.90;;;;;;5015638;28;20052;-88
2023/10/17 00:39:32;;;;;;;6.97;2.17;;;8.50;99.90;;;;;;5015677;28;20124;-88
2023/10/17 00:44:47;;;;;;;5.60;1.80;;;8.50;99.90;;;;;;5015672;28;20095;-88
2023/10/17 00:47:13;;;;;;;6.68;1.80;;;8.50;99.90;;;;;;5015526;28;20497;-88
2023/10/17 00:49:43;;;;;;;5.88;1.70;;;8.40;99.90;;;;;;5015564;28;20045;-88
2023/10/17 00:52:25;;;;;;;4.10;1.85;;;8.40;99.90;;;;;;5015783;28;20489;-88
2023/10/17 00:54:53;;;;;;;4.38;1.58;;;8.40;99.90;;;;;;5015728;28;20048;-88
2023/10/17 00:57:22;;;;;;;4.50;1.20;;;8.40;99.90;;;;;;5033002;28;20531;-88
2023/10/17 00:59:50;;;;;;;5.38;1.98;;;8.30;99.90;;;;;;5015411;28;20128;-88
2023/10/17 01:02:23;;;;;;;6.35;1.90;;;8.30;99.90;;;;;;5015443;28;20393;-88
2023/10/17 01:04:56;;;;;;;2.92;1.67;;;8.20;99.90;;;;;;5015627;28;20053;-88
2023/10/17 01:07:34;;;;;;;8.50;2.03;;;8.20;99.90;;;;;;5015529;28;20056;-88
2023/10/17 01:10:24;;;;;;;6.13;1.42;;;8.20;99.90;;;;;;5015267;28;20056;-88
2023/10/17 01:12:53;;;;;;;8.88;1.70;;;8.10;99.90;;;;;;5015682;28;20053;-88
2023/10/17 01:15:27;;;;;;;9.02;2.20;;;8.10;99.90;;;;;;5015418;28;20401;-88
2023/10/17 01:17:54;;;;;;;6.20;2.17;;;8.20;99.90;;;;;;5015621;28;20049;-87
2023/10/17 01:20:20;;;;;;;6.15;2.13;;;8.20;99.90;;;;;;5015212;28;20099;-88
2023/10/17 01:22:49;;;;;;;6.78;1.85;;;8.20;99.90;;;;;;5015483;28;20124;-88
2023/10/17 01:25:29;;;;;;;8.02;2.17;;;8.20;99.90;;;;;;5015287;28;20481;-87
2023/10/17 01:27:59;;;;;;;5.82;1.90;;;8.20;99.90;;;;;;5017141;28;20379;-88
2023/10/17 01:30:29;;;;;;;4.95;1.52;;;8.10;99.90;;;;;;5018842;28;20072;-87
2023/10/17 01:32:57;;;;;;;6.03;2.20;;;8.10;99.90;;;;;;5018696;28;20132;-88
2023/10/17 01:35:24;;;;;;;5.03;1.90;;;8.00;99.90;;;;;;5018354;28;20056;-88
2023/10/17 01:37:52;;;;;;;6.63;1.85;;;8.00;99.90;;;;;;5018503;28;20052;-88
2023/10/17 01:40:25;;;;;;;7.47;2.22;;;7.90;99.90;;;;;;5018623;28;20053;-88
2023/10/17 01:42:52;;;;;;;6.28;1.90;;;7.90;99.90;;;;;;5018667;28;20048;-88
2023/10/17 01:45:23;;;;;;;4.53;1.55;;;7.80;99.90;;;;;;5018538;28;20053;-88
2023/10/17 01:47:51;;;;;;;4.57;1.38;;;7.80;99.90;;;;;;5018659;28;20128;-88
2023/10/17 01:50:20;;;;;;;7.78;2.30;;;7.80;99.90;;;;;;5018442;28;20059;-87
2023/10/17 01:52:53;;;;;;;8.80;2.28;;;7.80;99.90;;;;;;5018566;28;20045;-88
2023/10/17 01:55:24;;;;;;;7.05;2.08;;;7.70;99.90;;;;;;5018552;28;20041;-87
2023/10/17 01:57:54;;;;;;;7.45;2.17;;;7.70;99.90;;;;;;5018055;28;20132;-88
2023/10/17 02:00:38;;;;;;;5.82;2.17;;;7.60;99.90;;;;;;5018392;28;20540;-87
2023/10/17 02:03:05;;;;;;;4.57;1.77;;;7.60;99.90;;;;;;5018136;28;20128;-88
2023/10/17 02:05:34;;;;;;;4.18;1.67;;;7.60;99.90;;;;;;5018417;28;20063;-88
2023/10/17 02:08:00;;;;;;;10.18;2.10;;;7.60;99.90;;;;;;5018356;28;20033;-88
2023/10/17 02:10:28;;;;;;;5.40;2.78;;;7.60;99.90;;;;;;5018070;28;20072;-88
2023/10/17 02:12:54;;;;;;;6.10;2.17;;;7.60;99.90;;;;;;5017878;28;20053;-88
2023/10/17 02:15:19;;;;;;;7.05;2.30;;;7.60;99.90;;;;;;5018211;28;20050;-87
2023/10/17 02:17:46;;;;;;;8.00;2.40;;;7.50;99.90;;;;;;5017859;28;20498;-88
2023/10/17 02:20:29;;;;;;;8.15;3.35;;;7.50;99.90;;;;;;5017769;28;20084;-88
2023/10/17 02:23:08;;;;;;;9.60;3.33;;;7.50;99.90;;;;;;5017730;28;20045;-88
2023/10/17 02:25:37;;;;;;;8.00;4.03;;;7.50;99.90;;;;;;5017723;28;20045;-88
2023/10/17 02:28:03;;;;;;;7.60;3.95;;;7.60;99.90;;;;;;5017525;28;20049;-88
2023/10/17 02:30:29;;;;;;;12.10;3.78;;;7.60;99.90;;;;;;5017540;28;20104;-88
2023/10/17 02:32:57;;;;;;;8.73;4.57;;;7.60;99.90;;;;;;5017690;28;20037;-88
2023/10/17 02:35:41;;;;;;;7.75;4.18;;;7.60;99.90;;;;;;5017313;28;20061;-88
2023/10/17 02:38:08;;;;;;;7.93;4.13;;;7.60;99.90;;;;;;5017399;28;20511;-88
2023/10/17 02:40:34;;;;;;;8.05;4.60;;;7.60;99.90;;;;;;5016734;28;20465;-88
2023/10/17 02:43:01;;;;;;;11.38;5.10;;;7.60;99.90;;;;;;5017621;28;20041;-88
2023/10/17 02:45:26;;;;;;;9.77;4.95;;;7.60;99.90;;;;;;5017749;28;20045;-88
2023/10/17 02:47:57;;;;;;;9.93;4.57;;;7.70;99.90;;;;;;5017522;28;20408;-88
2023/10/17 02:52:59;;;;;;;10.07;5.13;;;7.70;99.90;;;;;;5017440;28;20484;-88
2023/10/17 02:55:25;;;;;;;9.25;4.68;;;7.70;99.90;;;;;;5017507;28;20038;-88
2023/10/17 02:57:52;;;;;;;12.73;4.82;;;7.70;99.90;;;;;;5017126;28;20084;-88
2023/10/17 03:00:22;;;;;;;9.52;4.90;;;7.80;99.90;;;;;;5034504;28;20044;-89
2023/10/17 03:02:56;;;;;;;8.32;4.65;;;7.80;99.90;;;;;;5016980;28;20057;-88
2023/10/17 03:05:24;;;;;;;11.07;4.68;;;7.70;99.90;;;;;;5016931;28;20049;-88
2023/10/17 03:07:50;;;;;;;10.38;4.43;;;7.70;99.90;;;;;;5016881;28;20095;-88
2023/10/17 03:10:37;;;;;;;12.73;5.03;;;7.70;99.90;;;;;;5016854;28;20049;-87
2023/10/17 03:13:22;;;;;;;9.73;4.80;;;7.60;99.90;;;;;;5034855;28;20048;-87
2023/10/17 03:15:57;;;;;;;9.40;4.15;;;7.60;99.90;;;;;;5016821;28;20058;-87
2023/10/17 03:18:23;;;;;;;9.27;4.53;;;7.60;99.90;;;;;;5017108;28;20045;-87
2023/10/17 03:20:52;;;;;;;9.05;4.70;;;7.60;99.90;;;;;;5016912;28;20052;-87
2023/10/17 03:23:28;;;;;;;8.43;4.68;;;7.60;99.90;;;;;;5016586;28;20397;-87
2023/10/17 03:26:00;;;;;;;8.60;4.80;;;7.60;99.90;;;;;;5016448;28;20128;-87
2023/10/17 03:28:34;;;;;;;12.50;5.22;;;7.60;99.90;;;;;;5016703;28;20046;-87
2023/10/17 03:31:00;;;;;;;6.22;4.20;;;7.50;99.90;;;;;;5016580;28;20493;-87
2023/10/17 03:33:26;;;;;;;10.77;4.65;;;7.50;99.90;;;;;;5016580;28;20088;-87
2023/10/17 03:36:04;;;;;;;6.38;4.53;;;7.50;99.90;;;;;;5000489;28;20046;-87
2023/10/17 03:38:37;;;;;;;9.93;4.82;;;7.40;99.90;;;;;;5014616;28;20049;-87
2023/10/17 03:41:06;;;;;;;7.85;4.43;;;7.40;99.90;;;;;;4996677;28;20041;-88
2023/10/17 03:43:38;;;;;;;7.55;4.55;;;7.40;99.90;;;;;;4996672;28;20078;-88
2023/10/17 03:46:07;;;;;;;12.50;5.43;;;7.40;99.90;;;;;;4996678;28;20134;-88
2023/10/17 03:48:49;;;;;;;8.57;4.55;;;7.30;99.90;;;;;;4996816;28;20045;-87
2023/10/17 03:51:21;;;;;;;9.13;5.10;;;7.30;99.90;;;;;;4996503;28;20482;-87
2023/10/17 03:53:48;;;;;;;7.50;5.05;;;7.20;99.90;;;;;;4996623;28;20549;-88
2023/10/17 03:56:23;;;;;;;8.57;4.78;;;7.20;99.90;;;;;;4996748;28;20045;-88
2023/10/17 04:01:35;;;;;;;10.73;4.93;;;7.10;99.90;;;;;;4996682;28;20064;-88
2023/10/17 04:04:02;;;;;;;10.48;4.72;;;7.00;99.90;;;;;;4996380;28;20049;-88
2023/10/17 04:06:41;;;;;;;10.10;5.93;;;7.00;99.90;;;;;;4996732;28;20132;-88
2023/10/17 04:09:31;;;;;;;8.23;4.25;;;6.90;99.90;;;;;;4996300;28;20085;-88
2023/10/17 04:11:56;;;;;;;9.43;4.90;;;6.90;99.90;;;;;;4996032;28;20046;-88
2023/10/17 04:14:34;;;;;;;9.68;4.82;;;6.90;99.90;;;;;;4996343;28;20129;-87
2023/10/17 04:17:03;;;;;;;7.05;3.95;;;6.80;99.90;;;;;;4996523;28;20061;-88
2023/10/17 04:19:31;;;;;;;13.40;5.15;;;6.80;99.90;;;;;;4996164;28;20049;-88
2023/10/17 04:24:27;;;;;;;8.93;4.85;;;6.70;99.90;;;;;;4996044;28;20050;-88
2023/10/17 04:29:38;;;;;;;6.97;4.70;;;6.70;99.90;;;;;;4996203;28;20133;-87
2023/10/17 04:32:10;;;;;;;9.32;4.93;;;6.70;99.90;;;;;;4996045;28;20052;-88
2023/10/17 04:34:45;;;;;;;7.88;4.85;;;6.70;99.90;;;;;;4995882;28;20173;-87
2023/10/17 04:37:10;;;;;;;10.43;5.43;;;6.70;99.90;;;;;;4996143;28;20486;-88
2023/10/17 04:39:36;;;;;;;9.77;4.50;;;6.70;99.90;;;;;;4995960;28;20057;-88
2023/10/17 04:42:06;;;;;;;8.30;4.78;;;6.60;99.90;;;;;;4996111;28;20378;-88
2023/10/17 04:44:34;;;;;;;8.30;4.95;;;6.60;99.90;;;;;;4996029;28;20045;-88
2023/10/17 04:49:31;;;;;;;8.95;4.65;;;6.60;99.90;;;;;;4996236;28;20065;-88
2023/10/17 04:54:39;;;;;;;8.00;4.43;;;6.60;99.90;;;;;;4996297;28;20054;-87
2023/10/17 04:57:09;;;;;;;8.13;4.22;;;6.50;99.90;;;;;;4996135;28;20041;-87
2023/10/17 06:18:32;;;;;;;7.50;3.47;;;6.20;99.90;;;;;;4978521;28;20077;-86
2023/10/17 06:21:06;;;;;;;8.15;4.05;;;6.10;99.90;;;;;;4978541;28;20046;-86
2023/10/17 06:34:16;;;;;;;7.82;4.22;;;6.30;99.90;;;;;;4997975;28;20133;-87
2023/10/17 06:36:43;;;;;;;6.82;4.43;;;6.30;99.90;;;;;;5016481;28;20444;-82
2023/10/17 06:39:19;;;;;;;8.38;4.50;;;6.30;99.90;;;;;;5017119;28;20477;-82
2023/10/17 06:41:47;;;;;;;9.50;4.43;;;6.40;99.90;;;;;;5017432;28;20064;-86
2023/10/17 06:44:21;;;;;;;12.07;6.85;;;6.40;99.90;;;;;;5017176;28;20499;-82
2023/10/17 06:46:58;;;;;;;10.13;5.25;;;6.40;99.90;;;;;;5034963;28;20111;-82
2023/10/17 06:54:52;;;;;;;70.88;35.75;;;6.40;99.90;;;;;;5017207;28;20612;-81
2023/10/17 06:57:19;;;;;;;21.50;11.82;;;6.40;99.90;;;;;;5017101;28;20064;-85
2023/10/17 06:59:52;;;;;;;13.18;6.53;;;6.30;99.90;;;;;;5016713;28;20045;-85
2023/10/17 07:02:31;;;;;;;7.85;5.22;;;6.40;99.90;;;;;;5016677;28;20122;-85
2023/10/17 07:05:00;;;;;;;9.10;4.95;;;6.40;99.90;;;;;;5016756;28;20124;-87
2023/10/17 07:07:40;;;;;;;9.88;4.40;;;6.40;99.90;;;;;;5017091;28;20083;-87
2023/10/17 07:10:36;;;;;;;10.90;6.13;;;6.40;99.90;;;;;;5017078;28;20049;-85
2023/10/17 07:13:41;;;;;;;16.35;9.45;;;6.50;99.90;;;;;;5016771;28;20053;-86
2023/10/17 07:16:16;;;;;;;18.08;11.40;;;6.50;99.90;;;;;;5016045;28;20045;-86
2023/10/17 07:18:47;;;;;;;25.88;15.48;;;6.50;99.90;;;;;;5016436;28;20056;-87
2023/10/17 07:23:48;;;;;;;10.57;5.10;;;6.60;99.90;;;;;;5016586;28;20084;-86
2023/10/17 07:26:17;;;;;;;9.27;4.57;;;6.60;99.90;;;;;;5016470;28;20068;-86
2023/10/17 07:28:50;;;;;;;8.57;4.73;;;6.60;99.90;;;;;;5048879;23;20053;-86
2023/10/17 07:31:22;;;;;;;9.00;4.28;;;6.60;99.90;;;;;;5016266;28;20775;-87
2023/10/17 07:36:34;;;;;;;8.98;4.72;;;6.60;99.90;;;;;;5016441;28;20046;-86
2023/10/17 07:39:16;;;;;;;10.43;4.47;;;6.70;99.90;;;;;;5016525;28;20387;-86
2023/10/17 07:41:51;;;;;;;11.43;4.90;;;6.60;99.90;;;;;;5016531;28;20053;-86
2023/10/17 07:44:19;;;;;;;13.18;8.32;;;6.70;99.90;;;;;;5016132;28;20064;-86
2023/10/17 07:47:19;;;;;;;11.68;6.68;;;6.70;99.90;;;;;;5015992;28;20046;-87
2023/10/17 07:49:47;;;;;;;13.27;7.50;;;6.70;99.90;;;;;;5015968;28;20049;-87
2023/10/17 07:52:16;;;;;;;21.02;16.02;;;6.70;99.90;;;;;;5016052;28;20048;-86
2023/10/17 07:54:46;;;;;;;17.90;11.05;;;6.80;99.90;;;;;;5016295;28;20111;-86
2023/10/17 07:57:17;;;;;;;15.48;8.85;;;6.80;99.90;;;;;;5016275;28;20100;-86
2023/10/17 07:59:56;;;;;;;10.15;4.65;;;7.00;99.90;;;;;;5016420;28;20038;-86
2023/10/17 08:02:23;;;;;;;7.30;3.90;;;7.10;99.90;;;;;;5016277;28;20053;-86
2023/10/17 08:04:50;;;;;;;11.88;4.72;;;7.20;99.90;;;;;;5015831;28;20508;-86
2023/10/17 08:07:20;;;;;;;8.93;4.10;;;7.30;99.90;;;;;;5015967;28;20504;-86
2023/10/17 08:09:50;;;;;;;7.07;3.75;;;7.50;99.90;;;;;;5015989;28;20572;-86
2023/10/17 08:12:22;;;;;;;7.45;3.42;;;7.50;99.90;;;;;;5016232;28;20541;-86
2023/10/17 08:15:18;;;;;;;9.00;3.70;;;7.60;99.90;;;;;;5016155;28;20057;-86
2023/10/17 08:17:44;;;;;;;10.95;3.13;;;7.80;99.90;;;;;;5033301;28;20517;-85
2023/10/17 08:23:06;;;;;;;8.48;2.95;;;8.00;99.90;;;;;;5015496;28;20103;-85
2023/10/17 08:25:39;;;;;;;7.32;2.35;;;8.10;99.90;;;;;;5015841;28;20046;-86
2023/10/17 08:28:13;;;;;;;7.78;1.83;;;8.20;99.90;;;;;;5021521;28;20129;-86
2023/10/17 08:30:39;;;;;;;6.68;1.73;;;8.30;99.90;;;;;;5032438;28;20053;-85
2023/10/17 08:35:38;;;;;;;5.07;1.70;;;8.60;99.90;;;;;;5033081;28;20084;-85
2023/10/17 08:38:10;;;;;;;8.82;2.28;;;8.70;99.90;;;;;;5034322;28;20046;-85
2023/10/17 08:43:06;;;;;;;6.65;1.80;;;8.90;99.90;;;;;;5035980;28;20128;-85
2023/10/17 08:45:40;;;;;;;6.78;1.45;;;9.00;99.90;;;;;;5036071;28;20072;-85
2023/10/17 08:48:08;;;;;;;5.00;1.38;;;9.10;99.90;;;;;;5036151;28;20496;-85
2023/10/17 08:50:39;;;;;;;4.15;1.35;;;9.20;99.90;;;;;;5035921;28;20037;-84
2023/10/17 08:53:20;;;;;;;3.47;0.82;;;9.30;99.90;;;;;;5036029;28;20049;-84
2023/10/17 08:55:48;;;;;;;5.13;0.95;;;9.30;99.90;;;;;;5036028;28;20107;-84
2023/10/17 08:58:15;;;;;;;3.30;0.75;;;9.40;99.90;;;;;;5035409;28;20099;-84
2023/10/17 09:03:23;;;;;;;5.07;1.25;;;9.60;99.90;;;;;;5035631;28;20049;-84
2023/10/17 09:08:55;;;;;;;1.90;0.70;;;9.70;99.90;;;;;;5035594;28;20429;-84
2023/10/17 09:11:33;;;;;;;2.42;0.90;;;9.90;99.90;;;;;;5035503;28;20057;-84
2023/10/17 09:14:24;;;;;;;3.30;0.57;;;9.90;99.90;;;;;;5035800;28;20065;-84
2023/10/17 09:17:10;;;;;;;3.55;1.10;;;10.00;99.90;;;;;;5035703;28;20057;-84
2023/10/17 09:19:51;;;;;;;2.83;0.65;;;10.20;99.90;;;;;;5036908;28;20064;-83
2023/10/17 09:22:38;;;;;;;4.35;0.57;;;10.20;99.90;;;;;;5035333;28;20046;-83
2023/10/17 09:25:35;;;;;;;2.90;0.60;;;10.30;99.90;;;;;;5035431;28;20100;-83
2023/10/17 09:28:01;;;;;;;2.33;0.57;;;10.40;99.90;;;;;;5027163;28;20050;-83
2023/10/17 09:30:27;;;;;;;4.95;0.75;;;10.60;99.90;;;;;;5035190;28;20049;-83
2023/10/17 09:32:53;;;;;;;2.55;0.50;;;10.60;99.90;;;;;;5035089;28;20042;-83
2023/10/17 09:35:18;;;;;;;8.40;0.90;;;10.70;99.90;;;;;;5035058;28;20088;-84
2023/10/17 09:37:56;;;;;;;4.45;0.80;;;10.80;99.90;;;;;;5035122;28;20033;-83
2023/10/17 09:40:29;;;;;;;5.00;1.00;;;10.90;99.90;;;;;;5036302;22;20081;-83
2023/10/17 09:42:56;;;;;;;4.72;0.70;;;10.90;99.90;;;;;;5018630;28;20053;-83
2023/10/17 09:45:22;;;;;;;3.67;1.10;;;11.00;99.90;;;;;;5035978;28;20053;-83
2023/10/17 09:47:57;;;;;;;6.07;1.75;;;11.10;99.90;;;;;;5018223;28;20056;-83
2023/10/17 09:50:25;;;;;;;5.13;1.55;;;11.10;99.90;;;;;;5018202;28;20520;-83
2023/10/17 09:52:54;;;;;;;5.03;1.40;;;11.20;99.90;;;;;;5018190;28;20046;-83
2023/10/17 09:55:26;;;;;;;5.25;1.73;;;11.30;99.90;;;;;;5018451;28;20041;-83
2023/10/17 09:57:56;;;;;;;5.20;1.83;;;11.40;99.90;;;;;;5018344;28;20109;-83
2023/10/17 10:00:23;;;;;;;4.10;1.63;;;11.50;99.90;;;;;;5018347;28;20485;-83
2023/10/17 10:02:52;;;;;;;4.18;1.80;;;11.40;99.90;;;;;;5018126;28;20120;-83
2023/10/17 10:05:28;;;;;;;3.55;1.88;;;11.50;99.90;;;;;;5018028;28;20045;-83
2023/10/17 10:08:02;;;;;;;6.07;1.92;;;11.60;99.90;;;;;;5018372;28;20575;-83
2023/10/17 10:10:51;;;;;;;8.70;2.38;;;11.70;99.90;;;;;;5017986;28;20404;-83
2023/10/17 10:13:19;;;;;;;5.50;2.00;;;11.80;99.90;;;;;;5017934;28;20115;-83
2023/10/17 10:15:51;;;;;;;6.32;1.80;;;11.80;99.90;;;;;;5035510;28;20057;-83
2023/10/17 10:18:37;;;;;;;4.50;1.83;;;11.80;99.90;;;;;;5018084;28;20041;-84
2023/10/17 10:21:03;;;;;;;8.57;2.53;;;11.90;99.90;;;;;;5035330;28;20067;-84
2023/10/17 10:23:36;;;;;;;7.20;2.30;;;11.90;99.90;;;;;;5017795;28;20720;-83
2023/10/17 10:26:10;;;;;;;;;;;12.10;99.90;;;;;;5018082;28;20052;-83
2023/10/17 10:28:37;;;;;;;5.80;2.50;;;12.20;99.90;;;;;;5017685;28;19924;-83
2023/10/17 10:31:26;;;;;;;7.72;2.65;;;12.20;99.90;;;;;;5017436;28;20557;-84
2023/10/17 10:33:53;;;;;;;5.80;2.33;;;12.30;99.90;;;;;;5035254;28;20370;-83
2023/10/17 10:36:21;;;;;;;7.95;2.80;;;12.30;99.90;;;;;;5017643;28;20054;-83
2023/10/17 10:38:47;;;;;;;6.72;2.45;;;12.30;99.90;;;;;;5017739;28;20052;-84
2023/10/17 10:41:15;;;;;;;10.80;2.72;;;12.30;99.90;;;;;;5023357;23;20050;-83
2023/10/17 10:44:01;;;;;;;7.18;3.13;;;12.40;99.90;;;;;;5012148;28;20136;-83
2023/10/17 10:46:28;;;;;;;8.07;3.00;;;12.60;99.90;;;;;;5017638;28;20046;-83
2023/10/17 10:48:56;;;;;;;6.55;3.05;;;12.70;99.90;;;;;;5017432;28;20045;-83
2023/10/17 10:51:24;;;;;;;6.82;3.35;;;12.80;99.90;;;;;;5017425;28;20045;-83
2023/10/17 10:53:59;;;;;;;6.18;2.72;;;12.90;99.90;;;;;;5017146;28;20050;-83
2023/10/17 10:56:27;;;;;;;9.50;3.92;;;13.00;99.90;;;;;;5017329;28;20049;-84
2023/10/17 10:58:57;;;;;;;10.48;4.00;;;13.10;99.90;;;;;;5017243;28;20543;-83
2023/10/17 11:01:25;;;;;;;6.10;3.03;;;13.00;99.90;;;;;;5033954;28;20507;-83
2023/10/17 11:03:52;;;;;;;9.63;3.13;;;13.00;99.90;;;;;;5016999;28;20504;-83
2023/10/17 11:06:27;;;;;;;6.60;3.20;;;12.90;99.90;;;;;;5034691;28;20042;-83
2023/10/17 11:08:54;;;;;;;7.68;3.20;;;12.80;99.90;;;;;;5016901;28;20052;-83
2023/10/17 11:11:19;;;;;;;9.98;3.75;;;12.90;99.90;;;;;;5016640;28;20053;-83
2023/10/17 11:13:49;;;;;;;9.07;3.47;;;13.10;99.90;;;;;;5016830;28;20057;-83
2023/10/17 11:16:25;;;;;;;7.07;3.15;;;13.10;99.90;;;;;;5016700;28;20068;-83
2023/10/17 11:18:51;;;;;;;11.30;5.00;;;13.20;99.90;;;;;;5016833;28;20056;-83
2023/10/17 11:21:22;;;;;;;6.80;3.35;;;13.20;99.90;;;;;;5016820;28;20049;-84
2023/10/17 11:23:51;;;;;;;6.43;2.85;;;13.20;99.90;;;;;;5016868;28;20076;-82
2023/10/17 11:26:21;;;;;;;9.15;3.25;;;13.10;99.90;;;;;;5016861;28;20132;-83
2023/10/17 11:28:51;;;;;;;8.23;2.92;;;13.20;99.90;;;;;;5016555;28;20044;-83
2023/10/17 11:31:26;;;;;;;5.90;2.70;;;13.10;99.90;;;;;;5034133;28;20400;-83
2023/10/17 11:33:52;;;;;;;9.63;3.38;;;13.20;99.90;;;;;;5016674;28;20128;-84
2023/10/17 11:36:20;;;;;;;7.45;2.75;;;13.30;99.90;;;;;;5016554;28;20096;-83
2023/10/17 11:38:57;;;;;;;7.07;2.95;;;13.50;99.90;;;;;;5016421;28;20064;-84
2023/10/17 11:41:38;;;;;;;7.35;2.67;;;13.40;99.90;;;;;;5019351;28;20101;-84
2023/10/17 11:44:05;;;;;;;7.55;2.70;;;13.30;99.90;;;;;;5032598;28;20055;-83
2023/10/17 11:46:31;;;;;;;5.43;2.85;;;13.40;99.90;;;;;;5032960;28;20520;-83
2023/10/17 11:49:20;;;;;;;6.90;3.42;;;13.50;99.90;;;;;;5032701;28;20044;-83
2023/10/17 11:52:15;;;;;;;4.65;2.13;;;13.40;99.90;;;;;;5032675;28;20049;-83
2023/10/17 11:54:55;;;;;;;7.22;2.70;;;13.40;99.90;;;;;;5032430;28;20081;-83
2023/10/17 11:57:25;;;;;;;4.35;2.00;;;13.40;99.90;;;;;;5032431;28;20576;-83
2023/10/17 12:02:50;;;;;;;9.02;2.90;;;13.50;99.90;;;;;;5033563;28;20467;-84
2023/10/17 12:05:20;;;;;;;5.53;2.28;;;13.50;99.90;;;;;;5032445;28;20049;-83
2023/10/17 12:07:53;;;;;;;7.22;2.25;;;13.60;99.90;;;;;;5032228;28;20041;-83
2023/10/17 12:10:20;;;;;;;6.22;2.33;;;13.60;99.90;;;;;;5032393;28;20058;-83
2023/10/17 12:12:46;;;;;;;5.93;1.95;;;13.80;99.90;;;;;;5032860;28;20041;-83
2023/10/17 12:15:18;;;;;;;10.57;2.30;;;13.80;99.90;;;;;;5032201;28;20084;-83
2023/10/17 12:17:44;;;;;;;4.93;2.37;;;13.70;99.90;;;;;;5032919;28;20084;-83
2023/10/17 12:20:13;;;;;;;6.70;3.15;;;13.60;99.90;;;;;;5032503;28;20049;-84
2023/10/17 12:22:40;;;;;;;7.50;2.83;;;13.60;99.90;;;;;;5032374;28;20121;-83
2023/10/17 12:25:06;;;;;;;8.50;2.78;;;13.50;99.90;;;;;;5032380;28;20057;-84
2023/10/17 12:27:32;;;;;;;6.07;2.30;;;13.60;99.90;;;;;;5032193;28;20473;-84
2023/10/17 12:29:58;;;;;;;6.28;2.35;;;13.70;99.90;;;;;;5031877;28;20067;-84
2023/10/17 12:32:24;;;;;;;7.85;2.50;;;13.80;99.90;;;;;;5032265;28;20094;-84
2023/10/17 12:34:54;;;;;;;8.27;3.10;;;13.60;99.90;;;;;;5032257;28;20147;-84
2023/10/17 12:37:19;;;;;;;6.60;2.53;;;13.80;99.90;;;;;;5031908;28;20061;-84
2023/10/17 12:39:47;;;;;;;4.45;2.30;;;13.70;99.90;;;;;;5031863;28;20049;-83
2023/10/17 12:42:15;;;;;;;7.00;2.28;;;13.70;99.90;;;;;;5031792;28;20062;-85
2023/10/17 12:44:41;;;;;;;7.38;2.30;;;13.80;99.90;;;;;;5033201;28;20129;-84
2023/10/17 12:47:06;;;;;;;7.95;2.80;;;13.80;99.90;;;;;;5032254;28;20187;-84
2023/10/17 12:49:32;;;;;;;7.13;1.90;;;13.80;99.90;;;;;;5032099;28;20493;-84
2023/10/17 12:52:00;;;;;;;8.13;2.35;;;13.80;99.90;;;;;;5032165;28;20045;-84
2023/10/17 12:54:27;;;;;;;6.97;2.42;;;13.90;99.90;;;;;;5032028;28;20045;-84
2023/10/17 12:56:53;;;;;;;9.40;2.40;;;14.00;99.90;;;;;;5032054;28;20053;-86
2023/10/17 12:59:19;;;;;;;6.57;2.10;;;13.80;99.90;;;;;;5031842;28;20045;-84
2023/10/17 13:01:46;;;;;;;5.32;2.55;;;13.70;99.90;;;;;;5032136;28;20041;-84
2023/10/17 13:04:11;;;;;;;4.95;2.50;;;13.60;99.90;;;;;;5031436;28;20400;-83
2023/10/17 13:06:38;;;;;;;6.75;2.42;;;13.60;99.90;;;;;;5031744;28;20470;-84
2023/10/17 13:09:04;;;;;;;10.30;2.50;;;13.70;99.90;;;;;;5031827;28;20049;-83
2023/10/17 13:11:30;;;;;;;4.20;2.25;;;13.70;99.90;;;;;;5031664;28;20125;-84
2023/10/17 13:13:57;;;;;;;7.85;2.03;;;13.70;99.90;;;;;;5031885;28;20136;-84
2023/10/17 13:16:26;;;;;;;6.60;2.35;;;13.70;99.90;;;;;;5031823;28;20056;-84
2023/10/17 13:18:56;;;;;;;6.45;2.25;;;13.80;99.90;;;;;;5031742;28;20076;-84
2023/10/17 13:21:22;;;;;;;8.05;2.65;;;13.90;99.90;;;;;;5031595;28;20052;-84
2023/10/17 13:23:48;;;;;;;10.52;3.28;;;13.80;99.90;;;;;;5032958;28;20052;-83
2023/10/17 13:26:15;;;;;;;6.55;2.72;;;13.80;99.90;;;;;;5035194;28;20053;-84
2023/10/17 13:28:42;;;;;;;7.53;3.00;;;13.80;99.90;;;;;;5035462;28;20106;-84
2023/10/17 13:31:12;;;;;;;6.40;2.42;;;13.70;99.90;;;;;;5034997;28;20504;-84
2023/10/17 13:33:52;;;;;;;5.85;2.70;;;13.80;99.90;;;;;;5035036;28;20042;-84
2023/10/17 13:36:20;;;;;;;5.55;2.38;;;13.80;99.90;;;;;;5035203;28;20099;-83
2023/10/17 13:38:45;;;;;;;5.90;2.30;;;13.90;99.90;;;;;;5035042;28;20488;-84
2023/10/17 13:41:15;;;;;;;6.28;2.50;;;13.90;99.90;;;;;;5034952;28;20058;-84
2023/10/17 13:43:42;;;;;;;8.45;2.38;;;13.80;99.90;;;;;;5034858;28;20128;-84
2023/10/17 13:46:13;;;;;;;7.38;2.65;;;13.80;99.90;;;;;;5034921;28;20133;-84
2023/10/17 13:48:48;;;;;;;6.50;2.30;;;13.80;99.90;;;;;;5035317;28;20167;-84
2023/10/17 13:51:15;;;;;;;4.75;1.92;;;13.80;99.90;;;;;;5035045;28;20121;-84
2023/10/17 13:53:44;;;;;;;4.93;1.80;;;13.50;99.90;;;;;;5034810;28;20045;-84
2023/10/17 13:56:18;;;;;;;4.50;1.90;;;13.70;99.90;;;;;;5034997;28;20087;-85
2023/10/17 13:58:46;;;;;;;5.03;2.10;;;13.60;99.90;;;;;;5034745;28;20049;-84
2023/10/17 14:01:31;;;;;;;6.60;2.13;;;13.60;99.90;;;;;;5034539;28;20049;-85
2023/10/17 14:03:58;;;;;;;5.25;1.83;;;13.60;99.90;;;;;;5034546;28;20072;-83
2023/10/17 14:06:33;;;;;;;7.43;2.13;;;13.70;99.90;;;;;;5034435;28;20073;-84
2023/10/17 14:09:00;;;;;;;6.30;1.92;;;13.60;99.90;;;;;;5034348;28;20045;-82
2023/10/17 14:11:25;;;;;;;5.00;1.85;;;13.50;99.90;;;;;;5034480;28;20512;-83
2023/10/17 14:13:51;;;;;;;3.97;1.83;;;13.50;99.90;;;;;;5034515;28;20152;-84
2023/10/17 14:16:22;;;;;;;4.93;1.60;;;13.50;99.90;;;;;;5034466;28;20045;-83
2023/10/17 14:18:52;;;;;;;5.95;1.83;;;13.50;99.90;;;;;;5034401;28;20052;-83
2023/10/17 14:21:34;;;;;;;5.97;1.48;;;13.60;99.90;;;;;;5034427;28;20064;-84
2023/10/17 14:24:27;;;;;;;4.97;1.92;;;13.60;99.90;;;;;;5034298;28;20390;-85
2023/10/17 14:26:53;;;;;;;5.28;1.77;;;13.50;99.90;;;;;;5034512;28;20136;-84
2023/10/17 14:29:21;;;;;;;4.78;1.95;;;13.40;99.90;;;;;;5034128;28;20054;-84
2023/10/17 14:31:47;;;;;;;6.85;1.92;;;13.40;99.90;;;;;;5034056;28;20406;-84
2023/10/17 14:34:12;;;;;;;6.63;2.08;;;13.40;99.90;;;;;;5033921;28;20045;-84
2023/10/17 14:36:40;;;;;;;4.50;2.03;;;13.40;99.90;;;;;;5033019;28;20079;-84
2023/10/17 14:39:09;;;;;;;3.38;1.75;;;13.40;99.90;;;;;;5034197;28;20053;-83
2023/10/17 14:41:40;;;;;;;6.78;1.98;;;13.40;99.90;;;;;;5033547;28;20053;-84
2023/10/17 14:44:06;;;;;;;4.32;2.72;;;13.30;99.90;;;;;;5033667;28;20068;-84
2023/10/17 14:46:31;;;;;;;4.50;2.08;;;13.20;99.90;;;;;;5033741;28;20053;-83
2023/10/17 14:48:58;;;;;;;5.32;2.15;;;13.20;99.90;;;;;;5033653;28;20049;-83
2023/10/17 14:51:24;;;;;;;4.75;2.25;;;13.10;99.90;;;;;;5033995;28;20374;-84
2023/10/17 14:53:52;;;;;;;6.97;2.15;;;13.10;99.90;;;;;;5033816;28;20072;-84
2023/10/17 14:56:20;;;;;;;4.57;2.00;;;13.10;99.90;;;;;;5033515;28;20080;-84
2023/10/17 14:58:46;;;;;;;9.00;2.40;;;13.10;99.90;;;;;;5033497;28;20337;-85
2023/10/17 15:01:12;;;;;;;5.72;2.50;;;13.00;99.90;;;;;;5033347;28;20050;-83
2023/10/17 15:03:38;;;;;;;5.28;1.90;;;12.90;99.90;;;;;;5033392;28;20045;-83
2023/10/17 15:06:06;;;;;;;7.10;2.20;;;12.80;99.90;;;;;;5033347;28;20128;-83
2023/10/17 15:08:32;;;;;;;6.50;2.17;;;12.80;99.90;;;;;;5033447;28;20481;-84
2023/10/17 15:11:04;;;;;;;6.28;2.20;;;12.70;99.90;;;;;;5034167;28;20528;-83
2023/10/17 15:13:31;;;;;;;7.03;2.05;;;12.60;99.90;;;;;;5033291;28;20152;-83
2023/10/17 15:15:56;;;;;;;5.50;1.80;;;12.60;99.90;;;;;;5033221;28;20095;-83
2023/10/17 15:18:22;;;;;;;5.03;2.00;;;12.60;99.90;;;;;;5033009;28;20045;-83
2023/10/17 15:20:49;;;;;;;6.28;2.50;;;12.50;99.90;;;;;;5033449;28;20180;-83
2023/10/17 15:23:14;;;;;;;6.20;2.17;;;12.70;99.90;;;;;;5033131;28;20042;-83
2023/10/17 15:25:40;;;;;;;7.15;2.42;;;12.60;99.90;;;;;;5032904;28;20068;-83
2023/10/17 15:28:06;;;;;;;4.60;2.08;;;12.50;99.90;;;;;;5033066;28;20103;-83